Time;durP1;ratioP1;P1;durP2;ratioP2;P2;SDS_P1;SDS_P2;PMS_P1;PMS_P2;Temp;Humidity;BMP_temperature;BMP_pressure;BME280_temperature;BME280_humidity;BME280_pressure;Samples;Min_cycle;Max_cycle;Signal;HPM_P1;HPM_P2
2021/07/30 04:01:17;;;;;;;10.70;9.20;;;15.50;99.90;;;;;;5619252;23;20571;-62
2021/07/30 04:03:45;;;;;;;9.80;9.00;;;15.40;99.90;;;;;;4994452;28;20462;-62
2021/07/30 04:06:12;;;;;;;11.03;9.73;;;15.40;99.90;;;;;;4994157;28;20815;-62
2021/07/30 04:08:39;;;;;;;10.27;9.37;;;15.30;99.90;;;;;;4994443;28;20534;-62
2021/07/30 04:11:06;;;;;;;10.47;9.47;;;15.30;99.90;;;;;;4994346;28;20531;-62
2021/07/30 04:13:33;;;;;;;9.97;9.07;;;15.20;99.90;;;;;;4994451;28;20454;-62
2021/07/30 04:16:03;;;;;;;9.70;8.90;;;15.20;99.90;;;;;;4994328;28;20569;-62
2021/07/30 04:18:32;;;;;;;10.80;9.23;;;15.20;99.90;;;;;;4994459;28;20460;-62
2021/07/30 04:20:59;;;;;;;10.33;9.43;;;15.30;99.90;;;;;;4994100;28;20500;-62
2021/07/30 04:23:26;;;;;;;10.87;9.83;;;15.30;99.90;;;;;;4994074;28;20528;-62
2021/07/30 04:25:52;;;;;;;21.60;10.13;;;15.30;99.90;;;;;;4993880;28;20453;-62
2021/07/30 04:28:19;;;;;;;11.10;10.00;;;15.30;99.90;;;;;;4993909;28;20505;-62
2021/07/30 04:30:46;;;;;;;10.00;9.07;;;15.30;99.90;;;;;;4993874;28;20524;-63
2021/07/30 04:33:12;;;;;;;11.67;9.40;;;15.30;99.90;;;;;;4994237;28;20464;-62
2021/07/30 04:35:40;;;;;;;9.57;8.60;;;15.30;99.90;;;;;;4994261;28;20457;-63
2021/07/30 04:38:07;;;;;;;10.37;9.47;;;15.30;99.90;;;;;;4994233;28;20454;-62
2021/07/30 04:40:34;;;;;;;11.83;10.53;;;15.40;99.90;;;;;;4994017;28;20481;-62
2021/07/30 04:43:01;;;;;;;11.07;9.97;;;15.40;99.90;;;;;;4994191;28;20458;-62
2021/07/30 04:45:28;;;;;;;10.70;9.80;;;15.30;99.90;;;;;;4994151;28;20454;-62
2021/07/30 04:47:54;;;;;;;11.90;10.70;;;15.30;99.90;;;;;;4993635;28;20461;-62
2021/07/30 04:50:21;;;;;;;10.80;9.57;;;15.30;99.90;;;;;;4993560;28;20938;-62
2021/07/30 04:52:53;;;;;;;11.73;10.80;;;15.30;99.90;;;;;;4994052;28;20457;-62
2021/07/30 04:55:20;;;;;;;11.83;10.73;;;15.30;99.90;;;;;;4994052;28;20461;-63
2021/07/30 04:57:46;;;;;;;11.90;10.80;;;15.40;99.90;;;;;;4993880;28;20478;-62
2021/07/30 05:00:14;;;;;;;11.23;10.30;;;15.40;99.90;;;;;;4994581;28;20458;-62
2021/07/30 05:02:41;;;;;;;12.53;10.17;;;15.50;99.90;;;;;;4994959;28;20454;-62
2021/07/30 05:05:08;;;;;;;12.00;11.00;;;15.60;99.90;;;;;;4998452;28;20481;-62
2021/07/30 05:07:35;;;;;;;11.80;10.80;;;15.60;99.90;;;;;;4997681;28;20461;-62
2021/07/30 05:10:03;;;;;;;12.43;11.33;;;15.70;99.90;;;;;;4998121;28;20457;-63
2021/07/30 05:12:30;;;;;;;11.63;10.37;;;15.70;99.90;;;;;;4997810;28;20841;-63
2021/07/30 05:14:57;;;;;;;12.13;10.97;;;15.80;99.90;;;;;;4998003;28;20959;-63
2021/07/30 05:17:24;;;;;;;12.37;11.17;;;15.80;99.90;;;;;;4998158;28;20466;-63
2021/07/30 05:19:50;;;;;;;12.40;11.40;;;15.80;99.90;;;;;;4998048;28;20457;-63
2021/07/30 05:22:17;;;;;;;12.63;11.43;;;15.80;99.90;;;;;;4997149;28;20851;-62
2021/07/30 05:24:44;;;;;;;11.23;10.33;;;15.80;99.90;;;;;;4997448;28;20930;-62
2021/07/30 05:27:12;;;;;;;12.60;11.30;;;15.80;99.90;;;;;;4997324;28;20472;-63
2021/07/30 05:29:38;;;;;;;11.70;10.80;;;16.00;99.90;;;;;;4997402;28;20453;-63
2021/07/30 05:32:08;;;;;;;11.73;10.73;;;16.10;99.90;;;;;;4996869;28;20485;-62
2021/07/30 05:34:34;;;;;;;10.80;9.90;;;16.40;99.90;;;;;;4997155;28;20454;-62
2021/07/30 05:37:01;;;;;;;10.77;9.50;;;16.50;99.90;;;;;;4997114;28;20485;-62
2021/07/30 05:39:29;;;;;;;11.17;9.30;;;16.80;99.90;;;;;;4996862;28;20454;-63
2021/07/30 05:41:56;;;;;;;10.87;9.90;;;17.10;99.90;;;;;;4996885;28;20482;-63
2021/07/30 05:44:24;;;;;;;10.90;9.97;;;17.30;99.90;;;;;;4996951;28;20453;-62
2021/07/30 05:46:51;;;;;;;14.57;9.40;;;17.60;99.90;;;;;;4996924;28;20512;-62
2021/07/30 05:49:17;;;;;;;9.50;8.70;;;17.70;99.90;;;;;;4997016;28;20465;-62
2021/07/30 05:51:44;;;;;;;10.93;9.87;;;17.80;99.90;;;;;;4996687;28;20481;-62
2021/07/30 05:54:11;;;;;;;12.77;9.73;;;17.80;99.90;;;;;;4996755;28;20457;-62
2021/07/30 05:56:37;;;;;;;9.47;8.70;;;17.80;99.90;;;;;;4996787;28;20477;-62
2021/07/30 05:59:04;;;;;;;11.17;10.10;;;17.80;99.90;;;;;;4996280;28;20958;-63
2021/07/30 06:01:32;;;;;;;11.47;9.83;;;17.90;99.90;;;;;;4996211;28;20596;-62
2021/07/30 06:03:59;;;;;;;9.73;9.03;;;18.00;99.90;;;;;;4996602;28;20457;-62
2021/07/30 06:06:25;;;;;;;10.00;9.10;;;18.10;99.90;;;;;;4996188;28;20965;-62
2021/07/30 06:08:52;;;;;;;9.50;8.50;;;18.20;99.90;;;;;;4996252;28;20938;-63
2021/07/30 06:11:19;;;;;;;10.20;9.20;;;18.20;99.90;;;;;;4996956;28;20477;-62
2021/07/30 06:13:46;;;;;;;9.83;8.87;;;18.10;99.90;;;;;;4996383;28;20449;-62
2021/07/30 06:16:12;;;;;;;10.20;8.87;;;18.20;99.90;;;;;;4996952;28;20457;-62
2021/07/30 06:18:40;;;;;;;9.87;8.97;;;18.20;99.90;;;;;;4996209;28;20469;-62
2021/07/30 06:21:07;;;;;;;13.03;9.73;;;18.30;99.90;;;;;;4996265;28;20481;-62
2021/07/30 06:23:34;;;;;;;9.07;8.37;;;18.40;99.90;;;;;;4996319;28;20458;-62
2021/07/30 06:26:00;;;;;;;10.30;9.40;;;18.50;99.90;;;;;;4996270;28;20457;-62
2021/07/30 06:28:27;;;;;;;8.63;7.80;;;18.70;99.90;;;;;;4996282;28;20454;-62
2021/07/30 06:30:54;;;;;;;8.20;7.60;;;19.00;99.90;;;;;;4996710;28;20548;-63
2021/07/30 06:33:23;;;;;;;8.73;7.60;;;19.40;99.90;;;;;;4996182;28;20457;-62
2021/07/30 06:35:51;;;;;;;7.40;6.87;;;19.80;99.90;;;;;;4995734;28;21045;-62
2021/07/30 06:38:18;;;;;;;8.17;7.50;;;20.30;99.90;;;;;;4995729;28;20845;-62
2021/07/30 06:40:47;;;;;;;8.93;8.03;;;20.80;99.90;;;;;;4995933;28;20482;-62
2021/07/30 06:43:14;;;;;;;7.77;7.17;;;21.20;99.90;;;;;;4996078;28;20492;-62
2021/07/30 06:45:41;;;;;;;7.40;6.70;;;21.50;99.90;;;;;;4995943;28;20460;-62
2021/07/30 06:48:07;;;;;;;7.13;6.50;;;21.90;99.90;;;;;;4995973;28;20789;-61
2021/07/30 06:50:34;;;;;;;10.20;6.27;;;22.40;99.90;;;;;;4995904;28;20500;-61
2021/07/30 06:53:02;;;;;;;6.50;6.00;;;22.80;99.90;;;;;;4996111;28;20532;-62
2021/07/30 06:55:29;;;;;;;6.37;5.77;;;23.30;99.90;;;;;;4996022;28;20454;-61
2021/07/30 06:57:56;;;;;;;6.77;6.27;;;23.70;99.90;;;;;;4995730;28;20488;-62
2021/07/30 07:00:22;;;;;;;6.67;6.00;;;24.10;99.90;;;;;;4995319;28;20461;-62
2021/07/30 07:02:49;;;;;;;6.10;5.50;;;24.50;99.90;;;;;;4995651;28;20438;-61
2021/07/30 07:05:18;;;;;;;6.37;5.57;;;24.90;99.90;;;;;;4995587;28;20457;-62
2021/07/30 07:07:45;;;;;;;6.10;4.90;;;25.00;99.90;;;;;;4995462;28;20454;-61
2021/07/30 07:10:14;;;;;;;6.47;6.00;;;25.30;99.90;;;;;;4995254;28;20485;-61
2021/07/30 07:12:40;;;;;;;8.20;5.80;;;25.40;99.90;;;;;;4995289;28;20493;-61
2021/07/30 07:15:08;;;;;;;6.10;5.50;;;25.70;99.90;;;;;;4995349;28;20457;-61
2021/07/30 07:17:34;;;;;;;7.20;5.83;;;25.90;99.90;;;;;;4995329;28;20509;-61
2021/07/30 07:20:01;;;;;;;5.63;4.97;;;26.20;99.90;;;;;;4995284;28;20449;-61
2021/07/30 07:22:29;;;;;;;7.40;5.57;;;26.70;99.90;;;;;;4994728;28;20983;-61
2021/07/30 07:24:56;;;;;;;6.47;5.97;;;27.10;99.90;;;;;;4994585;28;20516;-61
2021/07/30 07:27:24;;;;;;;5.70;5.30;;;27.60;99.90;;;;;;4994949;28;20476;-62
2021/07/30 07:29:51;;;;;;;8.83;8.00;;;28.00;99.90;;;;;;4995078;28;20497;-62
2021/07/30 07:32:17;;;;;;;6.27;5.63;;;28.20;99.90;;;;;;4995025;28;20473;-61
2021/07/30 07:34:44;;;;;;;6.00;5.57;;;28.40;99.30;;;;;;4995143;28;20482;-62
2021/07/30 07:37:11;;;;;;;6.13;5.73;;;28.80;98.00;;;;;;4994676;28;20998;-62
2021/07/30 07:39:38;;;;;;;5.80;5.40;;;29.10;98.30;;;;;;4994568;28;20954;-62
2021/07/30 07:42:04;;;;;;;6.00;5.60;;;29.70;97.40;;;;;;4994756;28;20485;-61
2021/07/30 07:44:33;;;;;;;6.03;5.57;;;30.00;94.50;;;;;;4994733;28;20438;-62
2021/07/30 07:47:00;;;;;;;6.00;5.50;;;30.10;93.80;;;;;;4994815;28;20450;-62
2021/07/30 07:49:27;;;;;;;5.27;4.97;;;30.40;92.70;;;;;;4994206;28;20958;-62
2021/07/30 07:51:54;;;;;;;5.53;4.93;;;30.60;92.80;;;;;;4994558;28;20474;-62
2021/07/30 07:54:20;;;;;;;7.60;5.00;;;30.80;91.10;;;;;;4994631;28;20477;-62
2021/07/30 07:56:47;;;;;;;5.80;5.43;;;31.20;90.50;;;;;;4995085;28;20461;-62
2021/07/30 07:59:14;;;;;;;6.90;6.40;;;31.40;89.00;;;;;;4994274;28;20461;-62
2021/07/30 08:01:42;;;;;;;5.93;4.80;;;31.50;87.70;;;;;;4994101;28;20885;-61
2021/07/30 08:04:08;;;;;;;5.50;5.10;;;31.60;88.30;;;;;;4995396;28;20504;-61
2021/07/30 08:06:35;;;;;;;9.73;5.50;;;31.70;85.30;;;;;;4994741;28;20951;-63
2021/07/30 08:09:02;;;;;;;10.57;5.97;;;30.90;87.60;;;;;;4994909;28;20476;-61
2021/07/30 08:11:28;;;;;;;5.90;5.40;;;30.90;86.30;;;;;;4994374;28;20482;-63
2021/07/30 08:13:55;;;;;;;6.20;5.60;;;30.80;90.10;;;;;;4994429;28;20453;-63
2021/07/30 08:16:25;;;;;;;9.67;8.77;;;31.20;89.60;;;;;;4994050;28;20958;-61
2021/07/30 08:18:54;;;;;;;5.70;5.20;;;32.20;84.70;;;;;;4994290;28;20480;-61
2021/07/30 08:21:21;;;;;;;6.30;5.80;;;32.90;81.20;;;;;;4993991;28;20473;-61
2021/07/30 08:23:48;;;;;;;5.80;5.30;;;33.00;82.80;;;;;;4994343;28;20508;-61
2021/07/30 08:26:15;;;;;;;5.90;5.30;;;33.10;79.80;;;;;;4994377;28;20457;-61
2021/07/30 08:28:41;;;;;;;5.80;5.20;;;33.70;77.10;;;;;;4994220;28;20456;-61
2021/07/30 08:31:08;;;;;;;6.97;6.37;;;34.10;73.00;;;;;;4994137;28;20488;-61
2021/07/30 08:33:36;;;;;;;6.13;5.10;;;33.80;74.00;;;;;;4993998;28;20461;-61
2021/07/30 08:36:07;;;;;;;7.70;5.50;;;34.20;73.70;;;;;;4994191;28;20543;-61
2021/07/30 08:38:33;;;;;;;6.10;5.50;;;34.50;72.50;;;;;;4996747;28;20560;-61
2021/07/30 08:41:00;;;;;;;6.57;6.03;;;34.70;74.70;;;;;;4998082;28;20477;-61
2021/07/30 08:43:27;;;;;;;6.93;5.60;;;34.80;74.60;;;;;;4998088;28;20457;-61
2021/07/30 08:45:54;;;;;;;7.20;5.97;;;35.30;68.30;;;;;;4998253;28;20465;-62
2021/07/30 08:48:21;;;;;;;6.40;5.23;;;35.80;66.60;;;;;;4998285;28;20453;-62
2021/07/30 08:50:48;;;;;;;5.10;4.60;;;36.10;65.80;;;;;;4998267;28;20480;-62
2021/07/30 08:53:22;;;;;;;5.67;5.27;;;36.20;65.00;;;;;;4998132;28;20461;-60
2021/07/30 08:55:49;;;;;;;5.70;5.20;;;36.30;64.60;;;;;;4998085;28;20496;-63
2021/07/30 08:58:16;;;;;;;6.37;5.87;;;36.70;62.50;;;;;;4997987;28;20480;-62
2021/07/30 09:00:43;;;;;;;4.77;4.37;;;35.20;60.50;;;;;;4997766;28;20504;-63
2021/07/30 09:03:09;;;;;;;10.30;4.60;;;35.70;62.50;;;;;;4997933;28;20805;-62
2021/07/30 09:05:37;;;;;;;5.90;5.10;;;35.40;61.30;;;;;;4997944;28;20461;-62
2021/07/30 09:08:05;;;;;;;5.40;4.73;;;36.00;63.40;;;;;;4997535;28;20981;-62
2021/07/30 09:10:36;;;;;;;5.07;4.77;;;36.30;59.30;;;;;;4997771;28;20473;-62
2021/07/30 09:13:18;;;;;;;4.37;3.93;;;36.30;58.40;;;;;;4997800;28;20514;-62
2021/07/30 09:15:46;;;;;;;5.03;4.73;;;36.50;55.80;;;;;;4997675;28;20460;-62
2021/07/30 09:18:26;;;;;;;6.50;4.50;;;36.80;57.40;;;;;;4997312;28;20989;-62
2021/07/30 09:20:53;;;;;;;4.90;4.60;;;35.90;60.00;;;;;;4997641;28;20483;-62
2021/07/30 09:23:20;;;;;;;4.70;4.30;;;36.50;58.60;;;;;;4997555;28;20477;-62
2021/07/30 09:25:48;;;;;;;5.57;4.10;;;37.00;60.00;;;;;;4997521;28;20512;-62
2021/07/30 09:28:15;;;;;;;4.93;4.63;;;37.40;54.80;;;;;;4997581;28;20462;-62
2021/07/30 09:30:42;;;;;;;5.40;5.10;;;37.50;54.30;;;;;;4997163;28;20870;-62
2021/07/30 09:33:08;;;;;;;5.00;4.70;;;37.50;53.70;;;;;;4997504;28;20462;-62
2021/07/30 09:35:57;;;;;;;4.70;4.40;;;37.40;54.00;;;;;;4997400;28;20506;-62
2021/07/30 09:38:23;;;;;;;5.03;4.73;;;37.50;52.60;;;;;;4997456;28;20504;-61
2021/07/30 09:41:10;;;;;;;4.80;4.43;;;37.40;55.10;;;;;;4997196;28;20506;-61
2021/07/30 09:43:37;;;;;;;4.60;4.23;;;37.50;52.30;;;;;;4997297;28;20439;-61
2021/07/30 09:46:11;;;;;;;7.10;5.20;;;36.80;52.90;;;;;;4997139;28;20548;-61
2021/07/30 09:48:48;;;;;;;5.20;4.80;;;36.10;54.20;;;;;;4996938;28;20784;-61
2021/07/30 09:51:16;;;;;;;5.30;4.90;;;36.10;53.90;;;;;;4996647;28;21051;-61
2021/07/30 09:53:45;;;;;;;5.07;4.60;;;36.40;54.70;;;;;;4997007;28;20857;-61
2021/07/30 09:56:14;;;;;;;4.97;4.67;;;36.50;55.00;;;;;;4997087;28;20496;-61
2021/07/30 09:58:43;;;;;;;4.67;4.37;;;37.00;54.00;;;;;;4996874;28;20551;-61
2021/07/30 10:01:15;;;;;;;4.77;4.47;;;37.50;52.10;;;;;;4996665;28;20512;-62
2021/07/30 10:03:44;;;;;;;5.47;4.97;;;37.40;55.10;;;;;;4997578;28;20516;-61
2021/07/30 10:06:13;;;;;;;5.13;4.43;;;37.20;54.40;;;;;;4996786;28;20460;-61
2021/07/30 10:08:40;;;;;;;4.70;4.40;;;37.60;53.40;;;;;;4996387;28;20935;-61
2021/07/30 10:11:07;;;;;;;5.03;4.70;;;37.60;54.70;;;;;;4996677;28;20474;-62
2021/07/30 10:13:46;;;;;;;4.83;4.40;;;37.50;55.10;;;;;;4996569;28;20528;-62
2021/07/30 10:16:14;;;;;;;5.63;5.23;;;37.90;53.70;;;;;;4996694;28;20442;-62
2021/07/30 10:18:43;;;;;;;5.30;4.80;;;38.30;53.70;;;;;;4996442;28;20489;-62
2021/07/30 10:21:12;;;;;;;5.17;4.73;;;38.60;54.90;;;;;;4996522;28;20482;-62
2021/07/30 10:23:39;;;;;;;5.33;4.63;;;39.20;53.90;;;;;;4996453;28;20459;-62
2021/07/30 10:26:07;;;;;;;7.70;4.90;;;38.60;50.60;;;;;;4996090;28;20943;-62
2021/07/30 10:28:35;;;;;;;5.53;5.13;;;38.20;53.10;;;;;;4996391;28;20460;-62
2021/07/30 10:31:03;;;;;;;4.67;4.20;;;37.40;52.90;;;;;;4996393;28;20488;-63
2021/07/30 10:33:51;;;;;;;7.03;5.70;;;37.30;57.20;;;;;;4996376;28;20460;-63
2021/07/30 10:36:40;;;;;;;4.83;4.60;;;37.70;56.30;;;;;;4996207;28;20459;-62
2021/07/30 10:39:18;;;;;;;4.70;4.40;;;37.50;54.20;;;;;;4996183;28;20477;-61
2021/07/30 10:42:09;;;;;;;5.90;5.40;;;37.90;54.40;;;;;;4995848;28;20976;-62
2021/07/30 10:44:57;;;;;;;5.47;5.17;;;37.60;53.70;;;;;;4996074;28;20475;-61
2021/07/30 10:47:24;;;;;;;6.63;4.70;;;36.80;54.80;;;;;;4995698;28;20462;-61
2021/07/30 10:49:50;;;;;;;6.00;5.50;;;36.30;56.60;;;;;;4995981;28;20454;-62
2021/07/30 10:52:30;;;;;;;5.60;5.27;;;36.00;55.90;;;;;;4995927;28;20473;-61
2021/07/30 10:54:57;;;;;;;5.67;5.17;;;35.50;58.60;;;;;;4995541;28;20914;-61
2021/07/30 10:57:49;;;;;;;5.80;5.27;;;35.40;57.10;;;;;;4995526;28;20830;-61
2021/07/30 11:00:17;;;;;;;5.70;5.30;;;35.10;58.30;;;;;;4994847;28;20520;-61
2021/07/30 11:03:05;;;;;;;5.40;5.10;;;34.50;58.00;;;;;;4998556;28;20442;-62
2021/07/30 11:05:34;;;;;;;6.10;5.50;;;34.20;60.80;;;;;;4998493;28;20484;-61
2021/07/30 11:08:04;;;;;;;5.03;4.63;;;34.10;63.00;;;;;;4995728;28;20456;-61
2021/07/30 11:10:31;;;;;;;5.20;4.80;;;35.00;59.40;;;;;;4995604;28;20509;-61
2021/07/30 11:13:01;;;;;;;5.27;4.87;;;35.20;57.80;;;;;;4995873;28;20457;-61
2021/07/30 11:15:33;;;;;;;5.03;4.73;;;35.30;57.70;;;;;;4995407;28;20438;-61
2021/07/30 11:18:03;;;;;;;5.70;5.20;;;34.90;58.10;;;;;;4995068;28;20532;-61
2021/07/30 11:20:35;;;;;;;4.93;4.53;;;35.00;61.00;;;;;;4995199;28;20907;-61
2021/07/30 11:23:05;;;;;;;4.90;4.57;;;35.60;57.60;;;;;;4994980;28;20983;-61
2021/07/30 11:25:32;;;;;;;4.93;4.63;;;35.90;58.80;;;;;;4995255;28;20803;-61
2021/07/30 11:28:00;;;;;;;5.00;4.70;;;36.20;57.80;;;;;;4995213;28;20460;-61
2021/07/30 11:30:31;;;;;;;5.73;5.33;;;36.30;56.40;;;;;;4995097;28;20536;-61
2021/07/30 11:33:00;;;;;;;5.93;5.00;;;36.30;58.50;;;;;;4994926;28;21013;-61
2021/07/30 11:35:30;;;;;;;5.30;5.00;;;35.90;57.30;;;;;;4994912;28;20541;-61
2021/07/30 11:38:01;;;;;;;6.07;5.47;;;35.60;58.00;;;;;;4994963;28;20541;-61
2021/07/30 11:40:28;;;;;;;5.40;5.00;;;35.40;59.50;;;;;;4994985;28;20520;-61
2021/07/30 11:43:06;;;;;;;5.17;4.87;;;35.30;60.10;;;;;;4994668;28;21133;-62
2021/07/30 11:45:33;;;;;;;5.53;5.10;;;35.10;58.20;;;;;;4995607;28;20441;-62
2021/07/30 11:48:01;;;;;;;5.73;5.33;;;34.90;60.10;;;;;;4994727;28;21008;-62
2021/07/30 11:50:30;;;;;;;5.73;5.40;;;34.60;58.80;;;;;;4994791;28;20461;-61
2021/07/30 11:53:04;;;;;;;5.23;4.83;;;34.50;63.10;;;;;;4994798;28;20552;-62
2021/07/30 11:55:31;;;;;;;5.50;5.20;;;34.40;61.40;;;;;;4994863;28;20462;-61
2021/07/30 11:58:10;;;;;;;6.50;6.00;;;34.50;60.40;;;;;;4994352;28;20918;-61
2021/07/30 12:00:36;;;;;;;4.60;4.30;;;34.50;61.50;;;;;;4994298;28;20847;-62
2021/07/30 12:03:18;;;;;;;6.00;5.50;;;34.30;58.90;;;;;;4994660;28;20442;-63
2021/07/30 12:05:47;;;;;;;5.27;4.77;;;34.00;58.40;;;;;;4994701;28;20809;-62
2021/07/30 12:08:15;;;;;;;6.10;5.60;;;33.70;59.50;;;;;;4994707;28;20493;-62
2021/07/30 12:10:43;;;;;;;6.07;5.57;;;33.50;63.80;;;;;;4994120;28;21009;-62
2021/07/30 12:13:10;;;;;;;5.27;4.80;;;33.60;62.50;;;;;;4994396;28;20461;-62
2021/07/30 12:15:39;;;;;;;5.90;5.50;;;33.50;64.40;;;;;;4994743;28;20460;-62
2021/07/30 12:18:06;;;;;;;5.47;5.00;;;33.40;64.00;;;;;;4994401;28;20457;-62
2021/07/30 12:20:36;;;;;;;6.10;5.60;;;33.00;63.10;;;;;;4994344;28;20461;-62
2021/07/30 12:23:04;;;;;;;5.13;4.73;;;33.00;64.90;;;;;;4994324;28;20798;-62
2021/07/30 12:25:36;;;;;;;6.00;5.60;;;33.00;65.30;;;;;;4994324;28;20515;-62
2021/07/30 12:28:07;;;;;;;6.37;5.13;;;33.00;64.00;;;;;;4994528;28;20863;-61
2021/07/30 12:30:35;;;;;;;5.87;5.40;;;33.20;64.50;;;;;;4994033;28;21025;-61
2021/07/30 12:33:01;;;;;;;7.40;4.70;;;33.10;61.60;;;;;;4994005;28;20476;-61
2021/07/30 12:35:34;;;;;;;5.90;5.40;;;32.90;63.40;;;;;;4994259;28;20457;-61
2021/07/30 12:38:03;;;;;;;5.60;5.20;;;32.40;65.40;;;;;;4995006;28;20464;-61
2021/07/30 12:40:30;;;;;;;5.87;5.47;;;32.30;65.80;;;;;;4993723;28;20481;-62
2021/07/30 12:43:14;;;;;;;6.37;5.97;;;32.50;69.30;;;;;;4993904;28;20958;-62
2021/07/30 12:45:42;;;;;;;5.43;5.03;;;32.60;66.10;;;;;;4994251;28;20449;-61
2021/07/30 12:48:09;;;;;;;5.20;4.90;;;32.20;66.30;;;;;;4994007;28;20485;-61
2021/07/30 12:50:39;;;;;;;6.90;6.27;;;32.20;68.70;;;;;;4994020;28;20469;-61
2021/07/30 12:53:17;;;;;;;6.03;5.53;;;32.10;68.00;;;;;;4994166;28;20454;-61
2021/07/30 12:56:02;;;;;;;5.97;5.57;;;32.20;68.30;;;;;;4994131;28;20445;-62
2021/07/30 12:58:30;;;;;;;5.67;5.33;;;31.50;63.90;;;;;;4994000;28;20442;-62
2021/07/30 13:00:57;;;;;;;5.90;5.50;;;31.90;70.00;;;;;;4993828;28;20580;-61
2021/07/30 13:03:24;;;;;;;6.40;5.80;;;32.00;70.10;;;;;;4993989;28;20458;-61
2021/07/30 13:05:54;;;;;;;5.03;4.63;;;32.10;67.90;;;;;;4993980;28;20464;-62
2021/07/30 13:08:21;;;;;;;5.63;5.23;;;32.10;68.30;;;;;;4994007;28;20457;-62
2021/07/30 13:10:48;;;;;;;5.83;5.37;;;32.10;70.30;;;;;;4993835;28;20524;-62
2021/07/30 13:13:16;;;;;;;5.60;5.10;;;32.10;69.80;;;;;;4994016;28;20442;-61
2021/07/30 13:15:44;;;;;;;6.47;6.00;;;32.20;69.60;;;;;;4993856;28;20464;-62
2021/07/30 13:18:11;;;;;;;6.00;5.40;;;32.20;67.40;;;;;;4993826;28;20486;-61
2021/07/30 13:20:38;;;;;;;5.90;5.50;;;32.20;68.10;;;;;;4993506;28;20874;-62
2021/07/30 13:23:06;;;;;;;6.03;5.43;;;32.10;72.20;;;;;;4993838;28;20453;-62
2021/07/30 13:25:35;;;;;;;5.87;5.47;;;32.00;69.80;;;;;;4997447;28;20819;-62
2021/07/30 13:28:02;;;;;;;5.80;5.30;;;32.00;70.80;;;;;;4997292;28;20820;-61
2021/07/30 13:30:29;;;;;;;5.73;5.23;;;32.10;73.00;;;;;;4997292;28;20453;-62
2021/07/30 13:32:58;;;;;;;7.43;6.83;;;32.20;74.10;;;;;;4997408;28;20461;-62
2021/07/30 13:35:25;;;;;;;5.87;5.47;;;31.80;68.20;;;;;;4997870;28;20453;-63
2021/07/30 13:37:52;;;;;;;5.90;5.50;;;31.80;71.60;;;;;;4997751;28;20825;-62
2021/07/30 13:40:20;;;;;;;5.30;5.00;;;31.90;72.20;;;;;;4996704;28;20989;-62
2021/07/30 13:42:47;;;;;;;6.20;5.53;;;31.70;72.40;;;;;;4996927;28;20927;-63
2021/07/30 13:45:13;;;;;;;11.20;6.37;;;31.70;68.80;;;;;;4997217;28;20464;-62
2021/07/30 13:47:40;;;;;;;7.53;6.30;;;32.00;73.30;;;;;;4997148;28;20453;-62
2021/07/30 13:50:07;;;;;;;6.80;5.87;;;32.00;69.50;;;;;;4997085;28;20457;-62
2021/07/30 13:52:34;;;;;;;6.00;5.60;;;31.90;71.10;;;;;;4996865;28;20477;-62
2021/07/30 13:55:01;;;;;;;7.23;5.37;;;31.70;69.30;;;;;;4996521;28;20957;-62
2021/07/30 13:57:29;;;;;;;6.63;5.90;;;31.80;70.00;;;;;;4996844;28;20464;-62
2021/07/30 13:59:55;;;;;;;7.00;6.40;;;31.70;73.00;;;;;;4996597;28;20840;-62
2021/07/30 14:02:22;;;;;;;6.70;6.20;;;31.90;73.80;;;;;;4996532;28;20481;-62
2021/07/30 14:04:49;;;;;;;6.83;6.27;;;31.90;68.60;;;;;;4996783;28;20461;-62
2021/07/30 14:07:15;;;;;;;5.73;5.33;;;32.00;73.00;;;;;;4996478;28;20453;-62
2021/07/30 14:09:42;;;;;;;6.00;5.50;;;32.00;69.60;;;;;;4996687;28;20452;-62
2021/07/30 14:12:09;;;;;;;6.47;5.93;;;31.80;69.90;;;;;;4996531;28;20473;-62
2021/07/30 14:14:39;;;;;;;6.80;6.20;;;31.60;70.30;;;;;;4996787;28;20458;-62
2021/07/30 14:17:06;;;;;;;6.53;6.03;;;31.80;73.30;;;;;;4998049;28;20449;-63
2021/07/30 14:19:34;;;;;;;6.07;5.67;;;32.00;73.40;;;;;;4999306;28;20993;-63
2021/07/30 14:22:01;;;;;;;7.50;6.90;;;32.10;70.20;;;;;;4998803;28;20561;-62
2021/07/30 14:24:28;;;;;;;6.40;6.00;;;32.20;74.00;;;;;;4996451;28;20484;-62
2021/07/30 14:26:55;;;;;;;7.47;6.30;;;32.30;70.10;;;;;;4996425;28;20438;-62
2021/07/30 14:29:21;;;;;;;6.70;6.17;;;32.00;67.60;;;;;;4996330;28;20456;-62
2021/07/30 14:31:49;;;;;;;7.00;6.50;;;32.00;70.20;;;;;;4995899;28;20550;-62
2021/07/30 14:34:16;;;;;;;7.10;6.60;;;31.90;67.30;;;;;;4996170;28;20461;-63
2021/07/30 14:36:43;;;;;;;7.40;6.90;;;32.00;68.60;;;;;;4995904;28;20966;-62
2021/07/30 14:39:13;;;;;;;7.20;6.50;;;31.80;69.20;;;;;;4995971;28;20543;-62
2021/07/30 14:41:40;;;;;;;5.80;5.30;;;31.80;69.40;;;;;;4995968;28;20477;-63
2021/07/30 14:44:06;;;;;;;6.57;6.13;;;31.60;73.40;;;;;;4995805;28;20576;-62
2021/07/30 14:46:33;;;;;;;6.90;6.40;;;31.50;74.90;;;;;;4996034;28;20465;-62
2021/07/30 14:49:03;;;;;;;7.13;6.57;;;31.40;75.70;;;;;;4995954;28;20493;-63
2021/07/30 14:51:30;;;;;;;6.73;6.10;;;31.50;74.90;;;;;;4996196;28;20474;-61
2021/07/30 14:53:58;;;;;;;7.70;6.97;;;31.60;71.50;;;;;;4995869;28;20858;-63
2021/07/30 14:56:27;;;;;;;6.83;6.33;;;31.70;75.30;;;;;;4995801;28;20461;-61
2021/07/30 14:58:53;;;;;;;8.33;7.47;;;31.80;76.20;;;;;;4995258;28;20485;-63
2021/07/30 15:01:20;;;;;;;6.90;6.30;;;31.90;74.90;;;;;;4995416;28;20922;-62
2021/07/30 15:03:47;;;;;;;6.53;6.00;;;32.00;73.80;;;;;;4995514;28;20818;-61
2021/07/30 15:06:15;;;;;;;5.80;5.50;;;31.90;72.30;;;;;;4995610;28;20844;-62
2021/07/30 15:08:42;;;;;;;7.57;7.03;;;31.80;74.30;;;;;;4995476;28;20487;-62
2021/07/30 15:11:09;;;;;;;7.60;6.63;;;31.70;72.10;;;;;;4995429;28;20473;-62
2021/07/30 15:13:36;;;;;;;6.23;5.83;;;31.80;70.80;;;;;;4995516;28;20512;-62
2021/07/30 15:16:04;;;;;;;6.73;6.20;;;31.80;73.30;;;;;;4995435;28;20457;-62
2021/07/30 15:18:32;;;;;;;6.50;6.00;;;31.90;74.70;;;;;;4995314;28;20488;-62
2021/07/30 15:20:59;;;;;;;7.07;6.47;;;31.80;74.30;;;;;;4995186;28;20531;-62
2021/07/30 15:23:30;;;;;;;6.40;6.00;;;31.80;75.00;;;;;;4995312;28;20453;-62
2021/07/30 15:26:00;;;;;;;5.77;5.30;;;31.80;74.10;;;;;;4995598;28;20450;-62
2021/07/30 15:28:26;;;;;;;7.93;6.27;;;31.60;73.20;;;;;;4996021;28;20822;-61
2021/07/30 15:30:53;;;;;;;7.20;6.60;;;31.40;73.80;;;;;;4995864;28;20478;-63
2021/07/30 15:33:20;;;;;;;7.20;6.60;;;31.40;75.50;;;;;;4995372;28;20477;-62
2021/07/30 15:35:46;;;;;;;6.60;6.10;;;31.20;74.80;;;;;;4995131;28;20461;-63
2021/07/30 15:38:16;;;;;;;7.00;6.40;;;31.30;77.60;;;;;;4995056;28;20942;-61
2021/07/30 15:40:44;;;;;;;6.50;6.00;;;31.50;76.20;;;;;;4995150;28;20509;-62
2021/07/30 15:43:11;;;;;;;6.63;6.10;;;31.50;75.30;;;;;;4995007;28;20465;-62
2021/07/30 15:45:39;;;;;;;6.47;6.07;;;31.40;76.10;;;;;;4994907;28;20808;-62
2021/07/30 15:48:07;;;;;;;6.77;6.27;;;31.20;75.50;;;;;;4994473;28;20460;-62
2021/07/30 15:50:34;;;;;;;7.37;6.77;;;31.00;75.40;;;;;;4994801;28;20453;-62
2021/07/30 15:53:01;;;;;;;6.77;6.37;;;31.00;76.30;;;;;;4994406;28;20464;-62
2021/07/30 15:55:28;;;;;;;6.63;6.13;;;30.90;77.20;;;;;;4994680;28;20466;-62
2021/07/30 15:57:56;;;;;;;7.33;6.60;;;30.80;76.80;;;;;;4994655;28;20466;-62
2021/07/30 16:00:24;;;;;;;6.87;6.37;;;30.90;78.30;;;;;;4994343;28;20474;-62
2021/07/30 16:02:51;;;;;;;6.63;6.13;;;30.80;77.80;;;;;;4995121;28;20441;-62
2021/07/30 16:05:17;;;;;;;8.00;6.77;;;30.80;78.20;;;;;;4994180;28;20939;-62
2021/07/30 16:07:44;;;;;;;7.37;6.87;;;30.60;77.40;;;;;;4994495;28;20462;-62
2021/07/30 16:10:12;;;;;;;7.40;6.43;;;30.60;80.50;;;;;;4994361;28;20450;-62
2021/07/30 16:12:38;;;;;;;6.70;6.20;;;30.40;79.00;;;;;;4995123;28;20477;-62
2021/07/30 16:15:07;;;;;;;6.63;6.13;;;30.30;80.20;;;;;;4994315;28;20465;-62
2021/07/30 16:17:34;;;;;;;7.10;6.60;;;30.00;79.60;;;;;;4994215;28;20965;-62
2021/07/30 16:20:01;;;;;;;7.00;6.40;;;29.80;80.90;;;;;;4994133;28;20824;-62
2021/07/30 16:22:27;;;;;;;6.40;6.00;;;29.70;81.20;;;;;;4993997;28;20861;-62
2021/07/30 16:24:54;;;;;;;7.27;6.67;;;29.50;82.20;;;;;;4994155;28;20458;-62
2021/07/30 16:27:21;;;;;;;6.80;6.30;;;29.40;81.80;;;;;;4994230;28;20456;-62
2021/07/30 16:29:47;;;;;;;7.90;7.20;;;29.30;82.80;;;;;;4994187;28;20955;-62
2021/07/30 16:32:15;;;;;;;6.60;6.20;;;29.10;81.70;;;;;;4993745;28;20983;-61
2021/07/30 16:34:42;;;;;;;6.67;6.27;;;29.00;83.00;;;;;;4994331;28;20461;-62
2021/07/30 16:37:09;;;;;;;8.30;7.20;;;28.80;83.90;;;;;;4994255;28;20523;-61
2021/07/30 16:39:35;;;;;;;8.57;7.40;;;28.60;84.40;;;;;;4994039;28;20464;-62
2021/07/30 16:42:02;;;;;;;7.63;7.03;;;28.50;84.00;;;;;;4994117;28;20478;-62
2021/07/30 16:44:29;;;;;;;7.13;6.63;;;28.40;85.80;;;;;;4994118;28;20480;-61
2021/07/30 16:46:56;;;;;;;6.73;6.23;;;28.30;85.50;;;;;;4994046;28;20856;-62
2021/07/30 16:49:24;;;;;;;6.90;6.30;;;28.20;86.10;;;;;;4994200;28;20861;-62
2021/07/30 16:51:50;;;;;;;6.70;6.20;;;28.10;85.70;;;;;;4994071;28;20496;-62